PFWS

South Naknek Nr 2 Airport

Airport
ICAO code
PFWS
IATA Code
WSN
Summary
ICAO Region
NAM
ICAO Territory
Location

, Alaska

Serving
South Naknek
Elevation
162 ft
Coordinates
58° 42' 8" N , 157° 0' 9" W
Metar
PFWS 201756Z AUTO 31003KT 10SM CLR 14/09 A3024 RMK AO2 SLP280 60001 T01440094 10144 20089 50001

Runways

Designator Length Width Surface Rops
4/22 690 18 GRVL-F No/No
12/30 1010 18 GRVL-DIRT- No/No

Airport map

Aerial View

SKYbrary Partners:

Safety knowledge contributed by: